Time;durP1;ratioP1;P1;durP2;ratioP2;P2;SDS_P1;SDS_P2;PMS_P1;PMS_P2;Temp;Humidity;BMP_temperature;BMP_pressure;BME280_temperature;BME280_humidity;BME280_pressure;Samples;Min_cycle;Max_cycle;Signal;HPM_P1;HPM_P2
2021/05/09 04:01:05;;;;;;;2.42;2.33;;;11.30;99.90;;;;;;5635569;23;20634;-72
2021/05/09 04:03:31;;;;;;;1.73;1.73;;;11.30;99.90;;;;;;4937891;29;20205;-72
2021/05/09 04:05:59;;;;;;;2.53;2.42;;;11.30;99.90;;;;;;4937738;29;20214;-71
2021/05/09 04:08:26;;;;;;;2.58;2.58;;;11.30;99.90;;;;;;4938448;29;20678;-72
2021/05/09 04:10:54;;;;;;;2.90;2.80;;;11.30;99.90;;;;;;4938760;29;20237;-71
2021/05/09 04:13:21;;;;;;;3.33;2.72;;;11.30;99.90;;;;;;4939045;29;20241;-72
2021/05/09 04:15:47;;;;;;;2.45;2.45;;;11.30;99.90;;;;;;4938982;29;20214;-70
2021/05/09 04:18:15;;;;;;;2.63;2.40;;;11.30;99.90;;;;;;4938329;29;20209;-70
2021/05/09 04:20:41;;;;;;;2.55;2.55;;;11.30;99.90;;;;;;4939240;29;20230;-70
2021/05/09 04:23:12;;;;;;;2.33;2.33;;;11.30;99.90;;;;;;4950745;29;20214;-70
2021/05/09 04:25:39;;;;;;;2.70;2.60;;;11.40;99.90;;;;;;4948514;29;20234;-70
2021/05/09 04:28:05;;;;;;;2.40;2.40;;;11.40;99.90;;;;;;4945487;29;20214;-70
2021/05/09 04:30:32;;;;;;;2.72;2.60;;;11.50;99.90;;;;;;4944292;29;20229;-70
2021/05/09 04:32:59;;;;;;;3.08;2.75;;;11.50;99.90;;;;;;4940631;29;20715;-70
2021/05/09 04:35:26;;;;;;;2.22;2.22;;;11.60;99.90;;;;;;4940513;29;20217;-70
2021/05/09 04:37:53;;;;;;;3.65;3.55;;;11.90;99.90;;;;;;4939242;29;20269;-71
2021/05/09 04:40:19;;;;;;;5.05;4.75;;;12.10;99.90;;;;;;4938475;29;20675;-70
2021/05/09 04:42:45;;;;;;;6.15;5.50;;;12.30;99.90;;;;;;4939233;29;20236;-70
2021/05/09 04:45:13;;;;;;;4.47;4.22;;;12.40;99.90;;;;;;4937556;29;20265;-69
2021/05/09 04:47:39;;;;;;;2.90;2.80;;;12.70;99.90;;;;;;4937213;29;20217;-70
2021/05/09 04:50:06;;;;;;;2.63;2.63;;;13.20;99.90;;;;;;4937042;29;20500;-72
2021/05/09 04:52:33;;;;;;;4.53;4.33;;;13.80;99.90;;;;;;4937496;29;20500;-70
2021/05/09 04:54:59;;;;;;;3.47;3.43;;;14.10;99.90;;;;;;4937431;29;20469;-70
2021/05/09 04:57:26;;;;;;;2.83;2.83;;;14.20;99.90;;;;;;4937439;29;20832;-71
2021/05/09 04:59:52;;;;;;;2.97;2.83;;;14.70;99.90;;;;;;4937408;29;20537;-70
2021/05/09 05:02:18;;;;;;;2.40;2.40;;;15.30;99.90;;;;;;4937029;29;20496;-70
2021/05/09 05:04:44;;;;;;;1.80;1.80;;;15.90;99.90;;;;;;4936328;29;20460;-72
2021/05/09 05:07:10;;;;;;;1.97;1.97;;;16.50;99.90;;;;;;4936776;29;20818;-72
2021/05/09 05:09:40;;;;;;;2.73;2.73;;;17.00;99.90;;;;;;4937017;29;20476;-72
2021/05/09 05:12:08;;;;;;;2.57;2.37;;;17.40;99.90;;;;;;4936687;29;20981;-69
2021/05/09 05:14:34;;;;;;;2.40;2.10;;;17.80;99.90;;;;;;4936812;29;20465;-70
2021/05/09 05:17:01;;;;;;;2.13;2.13;;;17.60;99.90;;;;;;4937054;29;20492;-70
2021/05/09 05:19:27;;;;;;;2.50;2.40;;;17.20;99.90;;;;;;4935860;29;20913;-70
2021/05/09 05:21:53;;;;;;;1.63;1.63;;;16.80;99.90;;;;;;4937454;29;20504;-71
2021/05/09 05:24:19;;;;;;;1.90;1.80;;;16.30;99.90;;;;;;4936670;29;20469;-71
2021/05/09 05:26:46;;;;;;;1.97;1.97;;;16.00;99.90;;;;;;4936678;29;20476;-72
2021/05/09 05:29:12;;;;;;;1.97;1.90;;;15.80;99.90;;;;;;4936763;29;20882;-72
2021/05/09 05:31:39;;;;;;;2.10;2.10;;;15.70;99.90;;;;;;4936736;29;20497;-71
2021/05/09 05:34:05;;;;;;;2.53;2.50;;;15.60;99.90;;;;;;4935779;29;20529;-70
2021/05/09 05:36:31;;;;;;;3.23;2.10;;;15.30;99.90;;;;;;4936498;29;20472;-71
2021/05/09 05:38:57;;;;;;;1.80;1.80;;;15.10;99.90;;;;;;4936707;29;20497;-71
2021/05/09 05:41:24;;;;;;;1.80;1.80;;;14.90;99.90;;;;;;4936982;29;20485;-72
2021/05/09 05:43:51;;;;;;;1.90;1.80;;;14.90;99.90;;;;;;4936699;29;20473;-72
2021/05/09 05:46:17;;;;;;;1.80;1.80;;;15.10;99.90;;;;;;4936804;29;20470;-72
2021/05/09 05:48:43;;;;;;;2.07;1.57;;;15.10;99.90;;;;;;4936596;29;20465;-72
2021/05/09 05:51:10;;;;;;;1.93;1.93;;;15.00;99.90;;;;;;4936644;29;20814;-73
2021/05/09 05:53:36;;;;;;;2.23;2.13;;;15.20;99.90;;;;;;4936502;29;20500;-72
2021/05/09 05:56:02;;;;;;;1.50;1.50;;;15.60;99.90;;;;;;4936675;29;20608;-71
2021/05/09 05:58:28;;;;;;;1.57;1.57;;;15.90;99.90;;;;;;4936242;29;20469;-71
2021/05/09 06:00:55;;;;;;;2.10;2.00;;;16.20;99.90;;;;;;4936071;29;20497;-71
2021/05/09 06:03:23;;;;;;;1.63;1.63;;;17.00;99.90;;;;;;4935643;29;20960;-72
2021/05/09 06:05:50;;;;;;;1.67;1.67;;;17.70;99.90;;;;;;4935751;29;20465;-71
2021/05/09 06:08:17;;;;;;;1.47;1.47;;;18.40;99.90;;;;;;4936203;29;20834;-72
2021/05/09 06:10:44;;;;;;;1.83;1.80;;;19.10;99.90;;;;;;4936253;29;20493;-71
2021/05/09 06:13:10;;;;;;;1.37;1.37;;;19.60;99.90;;;;;;4935727;29;20516;-72
2021/05/09 06:15:36;;;;;;;2.33;1.90;;;20.10;99.90;;;;;;4935704;29;20470;-72
2021/05/09 06:18:04;;;;;;;1.17;1.17;;;20.60;99.90;;;;;;4934538;29;20528;-72
2021/05/09 06:20:30;;;;;;;1.30;1.30;;;21.10;99.90;;;;;;4935230;29;20489;-72
2021/05/09 06:22:57;;;;;;;1.60;1.60;;;21.40;98.30;;;;;;4935421;29;20469;-72
2021/05/09 06:25:24;;;;;;;1.90;1.80;;;21.60;96.80;;;;;;4935550;29;20472;-73
2021/05/09 06:27:50;;;;;;;2.17;2.17;;;21.80;96.80;;;;;;4935440;29;20500;-72
2021/05/09 06:30:17;;;;;;;2.17;1.93;;;22.00;95.70;;;;;;4935196;29;20481;-72
2021/05/09 06:32:44;;;;;;;2.03;1.93;;;21.90;95.20;;;;;;4935063;29;20501;-72
2021/05/09 06:35:12;;;;;;;1.60;1.60;;;22.10;95.00;;;;;;4935084;29;20473;-72
2021/05/09 06:37:38;;;;;;;1.90;1.90;;;22.20;93.80;;;;;;4935470;29;20525;-72
2021/05/09 06:40:07;;;;;;;2.73;1.80;;;22.20;94.20;;;;;;4935565;29;20533;-72
2021/05/09 06:42:33;;;;;;;1.93;1.83;;;22.50;93.20;;;;;;4936255;29;20970;-72
2021/05/09 06:45:01;;;;;;;1.70;1.70;;;22.60;92.80;;;;;;4936195;29;20466;-72
2021/05/09 06:47:27;;;;;;;1.77;1.77;;;22.80;92.60;;;;;;4935667;29;20819;-71
2021/05/09 06:49:53;;;;;;;1.90;1.80;;;22.90;92.30;;;;;;4935612;29;20614;-72
2021/05/09 06:52:20;;;;;;;1.90;1.80;;;23.10;91.90;;;;;;4935614;29;21023;-71
2021/05/09 06:54:46;;;;;;;1.57;1.57;;;23.20;91.80;;;;;;4935525;29;20466;-70
2021/05/09 06:57:12;;;;;;;1.73;1.73;;;23.20;91.20;;;;;;4935499;29;20465;-72
2021/05/09 06:59:39;;;;;;;1.47;1.47;;;23.00;91.80;;;;;;4935297;29;20964;-74
2021/05/09 07:02:05;;;;;;;2.30;2.20;;;23.10;91.00;;;;;;4935105;29;20503;-73
2021/05/09 07:04:33;;;;;;;1.70;1.60;;;23.40;91.80;;;;;;4935298;29;20471;-74
2021/05/09 07:06:59;;;;;;;1.57;1.57;;;23.90;91.50;;;;;;4936049;29;20484;-73
2021/05/09 07:09:26;;;;;;;1.80;1.70;;;24.00;90.30;;;;;;4936011;29;20973;-73
2021/05/09 07:11:52;;;;;;;1.70;1.70;;;24.10;89.60;;;;;;4935688;29;20567;-73
2021/05/09 07:14:18;;;;;;;1.90;1.90;;;23.90;90.20;;;;;;4936763;29;20468;-73
2021/05/09 07:16:45;;;;;;;1.80;1.80;;;23.50;90.60;;;;;;4937133;29;20554;-74
2021/05/09 07:19:11;;;;;;;2.10;2.00;;;23.40;90.90;;;;;;4935181;29;20474;-73
2021/05/09 07:21:40;;;;;;;1.50;1.50;;;23.50;90.90;;;;;;4936423;29;20488;-73
2021/05/09 07:24:08;;;;;;;1.53;1.53;;;23.60;90.80;;;;;;4936513;29;20523;-72
2021/05/09 07:26:35;;;;;;;1.73;1.73;;;23.50;90.90;;;;;;4936432;29;20461;-73
2021/05/09 07:29:01;;;;;;;1.40;1.40;;;23.30;90.80;;;;;;4938215;29;20468;-74
2021/05/09 07:31:27;;;;;;;1.87;1.77;;;23.50;91.20;;;;;;4940094;29;21063;-74
2021/05/09 07:33:54;;;;;;;1.67;1.57;;;23.50;91.10;;;;;;4939528;29;20469;-73
2021/05/09 07:36:20;;;;;;;1.70;1.60;;;23.50;90.90;;;;;;4939639;29;20486;-73
2021/05/09 07:38:47;;;;;;;1.70;1.60;;;23.00;91.00;;;;;;4940155;29;20466;-71
2021/05/09 07:41:13;;;;;;;1.80;1.80;;;22.70;92.20;;;;;;4939772;29;20489;-71
2021/05/09 07:43:40;;;;;;;1.90;1.87;;;22.70;92.30;;;;;;4939204;29;20458;-71
2021/05/09 07:46:06;;;;;;;2.13;2.03;;;22.50;92.60;;;;;;4938750;29;20466;-71
2021/05/09 07:48:32;;;;;;;2.00;1.90;;;22.30;93.30;;;;;;4938323;29;20980;-71
2021/05/09 07:51:00;;;;;;;2.00;2.00;;;21.90;93.80;;;;;;4938645;29;20489;-70
2021/05/09 07:53:26;;;;;;;2.10;2.10;;;21.50;94.30;;;;;;4938648;29;20570;-70
2021/05/09 07:55:52;;;;;;;1.70;1.70;;;21.10;94.70;;;;;;4944510;29;20476;-70
2021/05/09 07:58:20;;;;;;;2.17;2.07;;;20.90;95.30;;;;;;4940188;29;20942;-69
2021/05/09 08:00:48;;;;;;;2.43;2.30;;;20.60;95.80;;;;;;4938766;29;20583;-69
2021/05/09 08:03:14;;;;;;;2.07;1.97;;;20.50;97.20;;;;;;4938006;29;20469;-69
2021/05/09 08:05:41;;;;;;;2.20;2.10;;;20.40;97.30;;;;;;4937885;29;20469;-69
2021/05/09 08:08:08;;;;;;;2.13;2.03;;;20.20;97.60;;;;;;4938050;29;21015;-70
2021/05/09 08:10:36;;;;;;;1.93;1.83;;;20.10;98.40;;;;;;4938517;29;20481;-69
2021/05/09 08:13:03;;;;;;;1.77;1.67;;;20.10;98.70;;;;;;4938158;29;20493;-69
2021/05/09 08:15:30;;;;;;;2.30;2.20;;;20.00;98.90;;;;;;4938609;29;20557;-69
2021/05/09 08:17:57;;;;;;;2.10;2.10;;;19.90;99.80;;;;;;4937947;29;20463;-69
2021/05/09 08:20:24;;;;;;;1.83;1.83;;;20.00;99.80;;;;;;4937699;29;20469;-69
2021/05/09 08:22:50;;;;;;;1.73;1.73;;;20.00;99.80;;;;;;4937601;29;20473;-69
2021/05/09 08:25:17;;;;;;;2.00;2.00;;;20.10;99.90;;;;;;4938398;29;20797;-69
2021/05/09 08:27:45;;;;;;;2.10;2.10;;;20.30;99.90;;;;;;4938292;29;20870;-69
2021/05/09 08:30:13;;;;;;;2.57;2.47;;;20.40;99.90;;;;;;4938761;29;20472;-69
2021/05/09 08:32:39;;;;;;;2.37;2.27;;;20.30;99.90;;;;;;4937168;29;20499;-71
2021/05/09 08:35:10;;;;;;;1.73;1.73;;;20.20;99.90;;;;;;4937445;29;20469;-70
2021/05/09 08:37:36;;;;;;;2.30;2.20;;;20.20;99.90;;;;;;4937675;29;20466;-70
2021/05/09 08:40:03;;;;;;;1.97;1.97;;;20.20;99.90;;;;;;4937067;29;20469;-70
2021/05/09 08:42:29;;;;;;;2.70;2.33;;;20.40;99.90;;;;;;4937646;29;20489;-70
2021/05/09 08:44:55;;;;;;;2.40;2.30;;;20.40;99.90;;;;;;4937974;29;20473;-70
2021/05/09 08:47:22;;;;;;;3.60;2.23;;;20.50;99.90;;;;;;4937450;29;20475;-70
2021/05/09 08:49:50;;;;;;;1.93;1.93;;;20.40;99.90;;;;;;4936932;29;20473;-70
2021/05/09 08:52:20;;;;;;;2.50;2.50;;;20.40;99.90;;;;;;4937157;29;20504;-70
2021/05/09 08:54:48;;;;;;;2.23;2.13;;;20.40;99.90;;;;;;4937523;29;20466;-70
2021/05/09 08:57:14;;;;;;;1.93;1.83;;;20.40;99.90;;;;;;4937567;29;20807;-70
2021/05/09 08:59:40;;;;;;;2.23;2.13;;;20.40;99.90;;;;;;4937139;29;20757;-70
2021/05/09 09:02:07;;;;;;;2.00;2.00;;;20.40;99.90;;;;;;4937140;29;20516;-70
2021/05/09 09:04:45;;;;;;;2.10;2.00;;;20.50;99.90;;;;;;4936212;29;20988;-69
2021/05/09 09:07:12;;;;;;;2.30;2.30;;;20.50;99.90;;;;;;4937229;29;20948;-69
2021/05/09 09:09:42;;;;;;;2.17;1.97;;;20.70;99.90;;;;;;4937067;29;20493;-69
2021/05/09 09:12:09;;;;;;;2.20;1.80;;;20.70;99.90;;;;;;4937818;29;20547;-70
2021/05/09 09:14:50;;;;;;;1.60;1.60;;;20.80;99.90;;;;;;4936933;29;20474;-70
2021/05/09 09:17:18;;;;;;;2.20;2.20;;;20.80;99.60;;;;;;4937087;29;20476;-70
2021/05/09 09:20:12;;;;;;;1.90;1.90;;;20.80;99.60;;;;;;4936457;29;20481;-71
2021/05/09 09:23:00;;;;;;;3.83;1.97;;;20.80;99.70;;;;;;4936603;29;20989;-71
2021/05/09 09:25:28;;;;;;;2.00;1.90;;;20.90;99.90;;;;;;4936736;29;20462;-71
2021/05/09 09:27:56;;;;;;;2.20;2.00;;;21.00;99.90;;;;;;4937008;29;20512;-71
2021/05/09 09:30:24;;;;;;;2.33;1.97;;;21.00;99.90;;;;;;4936723;29;20468;-71
2021/05/09 09:33:14;;;;;;;2.20;2.10;;;21.20;99.90;;;;;;4936340;29;20576;-71
2021/05/09 09:35:41;;;;;;;1.57;1.57;;;21.20;99.60;;;;;;4936304;29;20465;-71
2021/05/09 09:38:21;;;;;;;1.60;1.60;;;21.30;99.90;;;;;;4936448;29;20534;-71
2021/05/09 09:41:07;;;;;;;2.03;2.00;;;21.50;99.00;;;;;;4936558;29;20974;-71
2021/05/09 09:43:33;;;;;;;1.97;1.87;;;21.50;98.10;;;;;;4936700;29;20457;-71
2021/05/09 09:45:59;;;;;;;1.70;1.70;;;21.40;99.00;;;;;;4936663;29;20837;-71
2021/05/09 09:48:37;;;;;;;2.30;2.17;;;21.50;98.60;;;;;;4936228;29;20968;-71
2021/05/09 09:51:04;;;;;;;1.90;1.90;;;21.70;98.30;;;;;;4935863;29;20505;-71
2021/05/09 09:53:33;;;;;;;2.10;2.00;;;21.70;98.10;;;;;;4934757;29;20489;-71
2021/05/09 09:56:01;;;;;;;2.03;1.93;;;21.70;98.30;;;;;;4936678;29;20466;-71
2021/05/09 09:58:41;;;;;;;2.30;2.00;;;21.80;97.70;;;;;;4936079;29;20537;-71
2021/05/09 10:01:08;;;;;;;2.63;2.43;;;21.80;97.30;;;;;;4936391;29;20501;-71
2021/05/09 10:03:34;;;;;;;1.93;1.83;;;22.00;97.30;;;;;;4936242;29;20470;-71
2021/05/09 10:06:02;;;;;;;1.73;1.70;;;22.00;96.30;;;;;;4935853;29;20834;-70
2021/05/09 10:08:29;;;;;;;1.63;1.60;;;22.10;96.80;;;;;;4936216;29;20469;-70
2021/05/09 10:10:55;;;;;;;1.83;1.73;;;22.20;95.80;;;;;;4936111;29;20818;-70
2021/05/09 10:13:22;;;;;;;1.83;1.73;;;22.20;96.60;;;;;;4935779;29;20494;-70
2021/05/09 10:15:53;;;;;;;2.03;2.03;;;22.30;96.50;;;;;;4936444;29;20466;-71
2021/05/09 10:18:20;;;;;;;2.03;1.90;;;22.20;95.10;;;;;;4935884;29;20497;-71
2021/05/09 10:20:47;;;;;;;1.70;1.70;;;22.10;95.40;;;;;;4935870;29;20576;-71
2021/05/09 10:23:13;;;;;;;2.20;2.00;;;22.20;95.40;;;;;;4936218;29;20466;-71
2021/05/09 10:25:44;;;;;;;1.93;1.83;;;22.30;94.60;;;;;;4936117;29;20466;-71
2021/05/09 10:28:11;;;;;;;1.77;1.77;;;22.50;95.10;;;;;;4937358;29;21017;-70
2021/05/09 10:30:44;;;;;;;2.27;2.10;;;22.50;94.30;;;;;;4938339;29;20810;-72
2021/05/09 10:33:11;;;;;;;1.40;1.40;;;22.50;95.70;;;;;;4936414;29;20985;-70
2021/05/09 10:35:38;;;;;;;1.87;1.87;;;22.70;94.50;;;;;;4938071;29;20465;-70
2021/05/09 10:38:09;;;;;;;1.60;1.60;;;22.80;93.70;;;;;;4938380;29;20469;-70
2021/05/09 10:40:41;;;;;;;1.50;1.50;;;23.00;93.30;;;;;;4937771;29;20539;-71
2021/05/09 10:43:32;;;;;;;1.70;1.70;;;22.90;93.10;;;;;;4945633;29;20458;-71
2021/05/09 10:45:59;;;;;;;2.20;2.00;;;22.90;92.70;;;;;;4953461;29;20549;-72
2021/05/09 10:48:30;;;;;;;1.70;1.60;;;22.80;92.60;;;;;;4943015;29;20484;-72
2021/05/09 10:51:30;;;;;;;1.87;1.77;;;22.70;92.50;;;;;;4934986;29;20486;-72
2021/05/09 10:54:17;;;;;;;1.47;1.37;;;22.90;92.70;;;;;;4937689;29;20536;-71
2021/05/09 10:56:43;;;;;;;1.87;1.77;;;23.00;93.00;;;;;;4937429;29;20469;-73
2021/05/09 10:59:10;;;;;;;5.07;2.47;;;23.20;92.80;;;;;;4938480;29;20470;-73
2021/05/09 11:01:36;;;;;;;1.70;1.70;;;23.20;93.00;;;;;;4937273;29;20996;-73
2021/05/09 11:04:05;;;;;;;2.00;1.90;;;23.30;92.60;;;;;;4934394;29;20552;-73
2021/05/09 11:06:49;;;;;;;1.67;1.63;;;23.40;91.80;;;;;;4934731;29;20855;-73
2021/05/09 11:09:17;;;;;;;1.37;1.37;;;23.40;92.10;;;;;;4934759;29;20556;-73
2021/05/09 11:12:06;;;;;;;2.03;1.93;;;23.40;92.70;;;;;;4935098;29;20493;-72
2021/05/09 11:14:39;;;;;;;1.57;1.50;;;23.70;91.70;;;;;;4934516;29;20942;-72
2021/05/09 11:17:18;;;;;;;1.70;1.70;;;23.70;91.40;;;;;;4935233;29;20819;-73
2021/05/09 11:19:51;;;;;;;2.00;1.90;;;23.70;91.60;;;;;;4934098;29;20886;-72
2021/05/09 11:22:25;;;;;;;2.10;2.00;;;23.60;91.50;;;;;;4935599;29;20544;-73
2021/05/09 11:24:59;;;;;;;1.53;1.40;;;23.60;91.40;;;;;;4935231;29;20520;-72
2021/05/09 11:27:26;;;;;;;1.90;1.90;;;23.70;91.50;;;;;;4934550;29;20553;-71
2021/05/09 11:29:53;;;;;;;2.07;1.90;;;23.80;91.30;;;;;;4934964;29;20489;-73
2021/05/09 11:32:22;;;;;;;1.77;1.67;;;23.70;90.80;;;;;;4934435;29;20505;-70
2021/05/09 11:34:54;;;;;;;1.50;1.50;;;23.70;91.00;;;;;;4934517;29;20465;-72
2021/05/09 11:37:23;;;;;;;1.60;1.60;;;23.90;91.00;;;;;;4935750;29;20466;-71
2021/05/09 11:39:49;;;;;;;2.00;1.27;;;24.10;91.10;;;;;;4935432;29;20470;-72
2021/05/09 11:42:16;;;;;;;1.40;1.40;;;24.20;90.50;;;;;;4935523;29;20485;-72
2021/05/09 11:44:44;;;;;;;1.13;1.13;;;24.30;90.60;;;;;;4934826;29;20469;-71
2021/05/09 11:47:12;;;;;;;1.40;1.40;;;24.20;88.80;;;;;;4935262;29;20497;-72
2021/05/09 11:49:39;;;;;;;1.90;1.77;;;24.20;89.90;;;;;;4934130;29;20470;-73
2021/05/09 11:52:09;;;;;;;1.73;1.67;;;24.10;90.10;;;;;;4934637;29;20486;-73
2021/05/09 11:54:37;;;;;;;1.50;1.50;;;24.30;90.50;;;;;;4934589;29;20476;-71
2021/05/09 11:57:06;;;;;;;1.60;1.50;;;24.40;88.70;;;;;;4934958;29;20473;-71
2021/05/09 11:59:40;;;;;;;1.50;1.50;;;24.50;87.80;;;;;;4934750;29;20469;-71
2021/05/09 12:02:22;;;;;;;1.97;1.87;;;24.60;87.20;;;;;;4934656;29;20496;-72
2021/05/09 12:04:50;;;;;;;2.87;2.70;;;24.50;87.90;;;;;;4934209;29;20809;-72
2021/05/09 12:07:19;;;;;;;2.10;2.10;;;24.40;87.40;;;;;;4934862;29;20870;-72
2021/05/09 12:09:54;;;;;;;1.70;1.70;;;24.50;86.10;;;;;;4934563;29;20497;-72
2021/05/09 12:12:22;;;;;;;0.73;0.73;;;24.30;84.60;;;;;;4934531;29;21077;-72
2021/05/09 12:14:50;;;;;;;1.40;1.30;;;24.50;80.00;;;;;;4934927;29;20784;-72
2021/05/09 12:17:24;;;;;;;1.40;1.40;;;24.70;80.70;;;;;;4938058;29;20457;-72
2021/05/09 12:19:51;;;;;;;1.60;1.50;;;24.70;78.60;;;;;;4937777;29;20866;-72
2021/05/09 12:22:18;;;;;;;0.97;0.97;;;24.70;77.50;;;;;;4937836;29;20489;-72
2021/05/09 12:24:54;;;;;;;1.37;1.37;;;24.70;75.80;;;;;;4938013;29;20469;-71
2021/05/09 12:27:20;;;;;;;1.83;1.83;;;24.60;77.20;;;;;;4938274;29;20785;-72
2021/05/09 12:29:48;;;;;;;2.00;1.90;;;24.60;76.90;;;;;;4937980;29;20572;-72
2021/05/09 12:32:23;;;;;;;1.10;1.10;;;24.70;77.20;;;;;;4937612;29;20848;-71
2021/05/09 12:35:05;;;;;;;1.23;1.23;;;24.90;75.10;;;;;;4937184;29;20527;-72
2021/05/09 12:37:33;;;;;;;1.20;1.20;;;25.00;73.70;;;;;;4938621;29;20485;-71
2021/05/09 12:40:20;;;;;;;1.20;1.20;;;24.90;73.50;;;;;;4937845;29;21021;-70
2021/05/09 12:43:01;;;;;;;1.03;1.03;;;25.10;72.00;;;;;;4937323;29;20469;-71
2021/05/09 12:45:33;;;;;;;1.70;1.30;;;25.20;70.00;;;;;;4937458;29;21005;-72
2021/05/09 12:48:04;;;;;;;1.30;1.30;;;25.30;69.40;;;;;;4937326;29;20470;-72
2021/05/09 12:50:47;;;;;;;1.27;1.27;;;25.40;69.60;;;;;;4936917;29;20489;-72
2021/05/09 12:53:15;;;;;;;1.00;1.00;;;25.30;69.10;;;;;;4937223;29;20489;-72
2021/05/09 12:55:41;;;;;;;1.30;1.30;;;25.40;68.90;;;;;;4937437;29;20469;-72
2021/05/09 12:58:10;;;;;;;1.27;1.27;;;25.40;68.50;;;;;;4937665;29;20465;-72
2021/05/09 13:00:36;;;;;;;1.10;1.10;;;25.40;67.20;;;;;;4936572;29;20501;-72
2021/05/09 13:03:03;;;;;;;1.07;1.07;;;25.40;64.60;;;;;;4935998;29;20512;-72
2021/05/09 13:05:29;;;;;;;1.20;1.20;;;25.40;63.50;;;;;;4936109;29;20462;-70
2021/05/09 13:07:56;;;;;;;1.50;1.40;;;25.40;64.70;;;;;;4936963;29;20560;-70
2021/05/09 13:10:24;;;;;;;1.50;1.50;;;25.50;65.50;;;;;;4936578;29;20465;-70
2021/05/09 13:12:52;;;;;;;1.70;1.60;;;25.70;66.20;;;;;;4936759;29;20543;-70
2021/05/09 13:15:19;;;;;;;1.83;1.83;;;25.70;66.30;;;;;;4936756;29;20548;-70
2021/05/09 13:17:45;;;;;;;1.30;1.30;;;26.00;67.40;;;;;;4936674;29;20473;-71
2021/05/09 13:20:12;;;;;;;1.17;1.17;;;26.00;66.20;;;;;;4936008;29;20469;-70
2021/05/09 13:22:38;;;;;;;1.13;1.13;;;26.20;64.30;;;;;;4936643;29;20470;-72
2021/05/09 13:25:06;;;;;;;1.77;1.67;;;26.20;61.70;;;;;;4936636;29;20458;-71
2021/05/09 13:27:33;;;;;;;1.20;1.20;;;26.30;62.40;;;;;;4936694;29;20762;-69
2021/05/09 13:30:00;;;;;;;0.87;0.87;;;26.30;61.30;;;;;;4937110;29;20813;-69
2021/05/09 13:32:26;;;;;;;0.80;0.80;;;26.30;57.80;;;;;;4935210;29;20497;-69
2021/05/09 13:34:53;;;;;;;1.20;1.20;;;26.30;58.60;;;;;;4936496;29;20477;-69
2021/05/09 13:37:19;;;;;;;1.43;1.43;;;26.50;58.50;;;;;;4936792;29;20830;-69
2021/05/09 13:39:45;;;;;;;1.10;1.10;;;26.50;59.50;;;;;;4936569;29;20466;-69
2021/05/09 13:42:11;;;;;;;2.57;1.50;;;26.60;60.00;;;;;;4936703;29;20853;-68
2021/05/09 13:44:38;;;;;;;1.13;1.13;;;26.60;59.10;;;;;;4935756;29;20469;-68
2021/05/09 13:47:04;;;;;;;1.80;1.60;;;26.60;60.10;;;;;;4936430;29;21004;-67
2021/05/09 13:49:31;;;;;;;1.27;1.27;;;26.70;60.40;;;;;;4935113;29;20492;-68
2021/05/09 13:51:57;;;;;;;1.23;1.23;;;26.90;60.30;;;;;;4936005;29;20481;-67
2021/05/09 13:54:23;;;;;;;1.40;1.40;;;26.90;60.60;;;;;;4935945;29;20493;-70
2021/05/09 13:56:49;;;;;;;1.50;1.50;;;26.80;59.70;;;;;;4936765;29;20497;-70
2021/05/09 13:59:16;;;;;;;1.50;1.50;;;26.60;59.60;;;;;;4935774;29;20468;-70
2021/05/09 14:01:43;;;;;;;1.70;1.60;;;26.60;60.40;;;;;;4936236;29;20498;-70
2021/05/09 14:04:10;;;;;;;1.50;1.50;;;26.60;60.40;;;;;;4935447;29;20588;-69
2021/05/09 14:06:36;;;;;;;1.60;1.50;;;26.70;61.30;;;;;;4936191;28;20565;-69
2021/05/09 14:09:04;;;;;;;1.50;1.40;;;26.70;61.70;;;;;;4936020;29;20457;-69
2021/05/09 14:11:31;;;;;;;1.33;1.33;;;26.80;61.50;;;;;;4936357;29;20560;-69
2021/05/09 14:13:57;;;;;;;1.60;1.60;;;26.90;61.60;;;;;;4935570;29;20497;-69
2021/05/09 14:16:24;;;;;;;1.87;1.77;;;26.90;62.10;;;;;;4935320;29;20510;-68
2021/05/09 14:18:51;;;;;;;1.77;1.73;;;27.00;63.00;;;;;;4935315;29;20793;-69
2021/05/09 14:21:17;;;;;;;1.63;1.57;;;26.90;63.80;;;;;;4935149;29;21009;-69
2021/05/09 14:23:44;;;;;;;1.57;1.57;;;26.90;64.70;;;;;;4935800;29;20465;-69
2021/05/09 14:26:10;;;;;;;2.33;1.60;;;26.90;65.80;;;;;;4935663;29;20465;-68
2021/05/09 14:28:36;;;;;;;1.77;1.77;;;26.90;65.70;;;;;;4935731;29;20469;-69
2021/05/09 14:31:02;;;;;;;1.67;1.67;;;26.90;65.10;;;;;;4935156;29;20492;-69
2021/05/09 14:33:29;;;;;;;1.40;1.40;;;26.90;65.20;;;;;;4935012;29;20573;-70
2021/05/09 14:35:56;;;;;;;1.77;1.70;;;27.00;65.80;;;;;;4935336;29;20766;-69
2021/05/09 14:38:22;;;;;;;2.87;1.57;;;26.90;65.40;;;;;;4934893;29;20461;-69
2021/05/09 14:40:49;;;;;;;2.17;1.67;;;26.90;66.00;;;;;;4934927;29;20682;-68
2021/05/09 14:43:15;;;;;;;1.10;1.10;;;27.00;67.30;;;;;;4935172;29;20484;-69
2021/05/09 14:45:41;;;;;;;1.47;1.47;;;27.10;66.10;;;;;;4935020;29;20507;-69
2021/05/09 14:48:08;;;;;;;1.47;1.40;;;27.00;66.40;;;;;;4933875;29;20467;-70
2021/05/09 14:50:34;;;;;;;2.30;2.30;;;27.00;67.20;;;;;;4934387;29;20486;-70
2021/05/09 14:53:02;;;;;;;1.40;1.30;;;27.10;65.50;;;;;;4934508;29;20569;-70
2021/05/09 14:55:28;;;;;;;2.13;1.83;;;27.10;65.50;;;;;;4934635;29;20476;-69
2021/05/09 14:57:54;;;;;;;1.60;1.50;;;27.00;66.00;;;;;;4935334;29;20492;-69
2021/05/09 15:00:21;;;;;;;1.50;1.40;;;27.00;67.30;;;;;;4935491;29;20472;-69
2021/05/09 15:02:47;;;;;;;1.63;1.63;;;27.00;68.40;;;;;;4934541;29;20477;-69
2021/05/09 15:05:15;;;;;;;1.90;1.80;;;27.00;68.90;;;;;;4934423;29;20453;-69
2021/05/09 15:07:41;;;;;;;2.03;1.93;;;27.00;67.70;;;;;;4934711;29;20467;-69
2021/05/09 15:10:09;;;;;;;1.70;1.70;;;27.00;68.00;;;;;;4933793;29;20520;-69
2021/05/09 15:12:35;;;;;;;2.00;1.90;;;26.90;68.10;;;;;;4935270;29;20960;-68
2021/05/09 15:15:01;;;;;;;1.83;1.60;;;26.90;69.20;;;;;;4934588;29;20465;-69
2021/05/09 15:17:27;;;;;;;1.77;1.67;;;26.90;70.10;;;;;;4934253;29;20527;-70
2021/05/09 15:19:55;;;;;;;1.93;1.83;;;26.80;70.00;;;;;;4934709;29;20469;-71
2021/05/09 15:22:22;;;;;;;1.90;1.90;;;26.70;70.50;;;;;;4934106;29;20496;-71
2021/05/09 15:24:48;;;;;;;1.90;1.90;;;26.80;70.30;;;;;;4934397;29;20469;-71
2021/05/09 15:27:15;;;;;;;1.87;1.80;;;26.80;71.10;;;;;;4934826;29;20469;-68
2021/05/09 15:29:41;;;;;;;1.80;1.80;;;26.80;71.70;;;;;;4934665;29;20585;-69
2021/05/09 15:32:07;;;;;;;1.90;1.90;;;26.90;71.10;;;;;;4915977;29;20501;-68
2021/05/09 15:34:35;;;;;;;1.90;1.80;;;26.90;72.50;;;;;;4928663;29;20493;-68
2021/05/09 15:37:03;;;;;;;2.07;2.07;;;26.90;71.80;;;;;;4934656;29;20470;-68
2021/05/09 15:39:29;;;;;;;2.03;2.03;;;26.90;71.80;;;;;;4934491;29;20497;-67
2021/05/09 15:41:57;;;;;;;1.87;1.87;;;26.80;72.10;;;;;;4934505;29;20500;-67
2021/05/09 15:44:24;;;;;;;1.90;1.80;;;26.60;71.80;;;;;;4934169;29;20764;-68
2021/05/09 15:46:51;;;;;;;1.73;1.73;;;26.50;73.50;;;;;;4934761;29;20481;-68
2021/05/09 15:49:18;;;;;;;2.00;1.83;;;26.40;73.80;;;;;;4934042;29;20489;-68
2021/05/09 15:51:45;;;;;;;2.27;2.13;;;26.20;73.10;;;;;;4938082;29;21000;-67
2021/05/09 15:54:11;;;;;;;2.50;2.40;;;26.10;73.70;;;;;;4937523;29;20992;-68
2021/05/09 15:56:37;;;;;;;2.30;2.30;;;26.10;74.60;;;;;;4938441;29;20856;-68
2021/05/09 15:59:03;;;;;;;2.30;2.10;;;26.10;75.00;;;;;;4938002;29;20472;-69
2021/05/09 16:01:30;;;;;;;2.20;2.10;;;26.10;75.40;;;;;;4938098;29;20497;-68
2021/05/09 16:03:56;;;;;;;2.07;1.87;;;26.00;75.90;;;;;;4937403;29;20465;-69
2021/05/09 16:06:23;;;;;;;2.57;2.47;;;26.10;76.60;;;;;;4937316;29;20461;-69
2021/05/09 16:08:49;;;;;;;2.10;2.00;;;26.10;76.90;;;;;;4938562;29;20473;-69
2021/05/09 16:11:15;;;;;;;2.30;2.20;;;26.10;77.30;;;;;;4937466;29;20600;-69
2021/05/09 16:13:42;;;;;;;2.40;2.40;;;26.10;77.30;;;;;;4937847;29;20489;-70
2021/05/09 16:16:08;;;;;;;2.00;2.00;;;26.30;77.40;;;;;;4938636;29;20822;-69
2021/05/09 16:18:35;;;;;;;2.73;2.60;;;26.40;76.50;;;;;;4938360;29;20537;-69
2021/05/09 16:21:01;;;;;;;2.33;2.23;;;26.60;76.90;;;;;;4919168;29;20878;-69
2021/05/09 16:23:27;;;;;;;2.30;2.30;;;26.60;76.80;;;;;;4918953;29;20468;-70
2021/05/09 16:25:53;;;;;;;2.50;2.30;;;26.60;77.20;;;;;;4936379;29;20982;-71
2021/05/09 16:28:20;;;;;;;1.87;1.87;;;26.50;77.30;;;;;;4937848;29;20469;-70
2021/05/09 16:30:46;;;;;;;2.60;2.50;;;26.40;77.60;;;;;;4937612;29;20496;-70
2021/05/09 16:33:13;;;;;;;2.47;2.43;;;26.40;78.10;;;;;;4937437;29;20516;-69
2021/05/09 16:35:40;;;;;;;2.00;2.00;;;26.40;78.40;;;;;;4937665;29;20557;-69
2021/05/09 16:38:07;;;;;;;2.30;2.30;;;26.40;77.70;;;;;;4938212;29;20469;-69
2021/05/09 16:40:33;;;;;;;2.67;2.67;;;26.50;78.00;;;;;;4937748;29;20481;-70
2021/05/09 16:42:59;;;;;;;2.20;2.20;;;26.40;79.20;;;;;;4937691;29;20991;-71
2021/05/09 16:45:26;;;;;;;2.30;2.10;;;26.40;79.00;;;;;;4938213;29;20461;-70
2021/05/09 16:47:52;;;;;;;2.20;2.13;;;26.30;79.60;;;;;;4937952;29;20466;-71
2021/05/09 16:50:19;;;;;;;2.40;2.30;;;26.20;79.50;;;;;;4937709;29;20458;-70
2021/05/09 16:52:52;;;;;;;2.17;2.10;;;26.20;79.60;;;;;;4938513;29;20504;-71